sensor_id;sensor_type;location;lat;lon;timestamp;P1;durP1;ratioP1;P2;durP2;ratioP2
70814;SDS011;58428;49.478;10.986;2022-08-19T00:02:00;16.35;;;12.35;;
70814;SDS011;58428;49.478;10.986;2022-08-19T00:04:27;18.02;;;13.77;;
70814;SDS011;58428;49.478;10.986;2022-08-19T00:06:56;17.48;;;13.45;;
70814;SDS011;58428;49.478;10.986;2022-08-19T00:09:23;16.42;;;12.13;;
70814;SDS011;58428;49.478;10.986;2022-08-19T00:11:51;18.85;;;13.57;;
70814;SDS011;58428;49.478;10.986;2022-08-19T00:14:17;15.80;;;12.85;;
70814;SDS011;58428;49.478;10.986;2022-08-19T00:16:44;16.45;;;12.32;;
70814;SDS011;58428;49.478;10.986;2022-08-19T00:19:10;17.00;;;13.23;;
70814;SDS011;58428;49.478;10.986;2022-08-19T00:21:36;16.23;;;12.40;;
70814;SDS011;58428;49.478;10.986;2022-08-19T00:24:04;18.42;;;12.80;;
70814;SDS011;58428;49.478;10.986;2022-08-19T00:26:31;18.55;;;13.20;;
70814;SDS011;58428;49.478;10.986;2022-08-19T00:28:56;16.52;;;12.90;;
70814;SDS011;58428;49.478;10.986;2022-08-19T00:31:22;20.73;;;14.52;;
70814;SDS011;58428;49.478;10.986;2022-08-19T00:33:47;20.35;;;13.43;;
70814;SDS011;58428;49.478;10.986;2022-08-19T00:36:17;17.13;;;12.75;;
70814;SDS011;58428;49.478;10.986;2022-08-19T00:38:44;17.63;;;13.25;;
70814;SDS011;58428;49.478;10.986;2022-08-19T00:41:15;18.48;;;13.73;;
70814;SDS011;58428;49.478;10.986;2022-08-19T00:46:31;20.02;;;14.73;;
70814;SDS011;58428;49.478;10.986;2022-08-19T00:49:02;20.00;;;14.40;;
70814;SDS011;58428;49.478;10.986;2022-08-19T00:51:34;18.63;;;14.10;;
70814;SDS011;58428;49.478;10.986;2022-08-19T00:54:01;19.27;;;13.60;;
70814;SDS011;58428;49.478;10.986;2022-08-19T00:56:28;18.20;;;14.18;;
70814;SDS011;58428;49.478;10.986;2022-08-19T00:58:56;18.90;;;13.75;;
70814;SDS011;58428;49.478;10.986;2022-08-19T01:01:24;20.33;;;14.13;;
70814;SDS011;58428;49.478;10.986;2022-08-19T01:03:51;18.77;;;14.60;;
70814;SDS011;58428;49.478;10.986;2022-08-19T01:06:18;22.30;;;14.05;;
70814;SDS011;58428;49.478;10.986;2022-08-19T01:08:45;19.25;;;14.07;;
70814;SDS011;58428;49.478;10.986;2022-08-19T01:11:10;18.23;;;14.25;;
70814;SDS011;58428;49.478;10.986;2022-08-19T01:13:37;19.92;;;13.90;;
70814;SDS011;58428;49.478;10.986;2022-08-19T01:16:07;20.45;;;13.85;;
70814;SDS011;58428;49.478;10.986;2022-08-19T01:18:35;18.63;;;13.65;;
70814;SDS011;58428;49.478;10.986;2022-08-19T01:23:47;20.25;;;13.93;;
70814;SDS011;58428;49.478;10.986;2022-08-19T01:26:14;18.55;;;13.38;;
70814;SDS011;58428;49.478;10.986;2022-08-19T01:28:43;17.05;;;13.18;;
70814;SDS011;58428;49.478;10.986;2022-08-19T01:31:10;19.45;;;14.32;;
70814;SDS011;58428;49.478;10.986;2022-08-19T01:33:39;19.38;;;14.10;;
70814;SDS011;58428;49.478;10.986;2022-08-19T01:36:11;21.58;;;15.00;;
70814;SDS011;58428;49.478;10.986;2022-08-19T01:38:41;22.17;;;15.18;;
70814;SDS011;58428;49.478;10.986;2022-08-19T01:41:09;20.52;;;14.27;;
70814;SDS011;58428;49.478;10.986;2022-08-19T01:43:36;19.33;;;13.48;;
70814;SDS011;58428;49.478;10.986;2022-08-19T01:46:02;18.92;;;13.32;;
70814;SDS011;58428;49.478;10.986;2022-08-19T01:48:32;22.40;;;15.77;;
70814;SDS011;58428;49.478;10.986;2022-08-19T01:51:02;20.58;;;15.18;;
70814;SDS011;58428;49.478;10.986;2022-08-19T01:53:28;22.90;;;15.73;;
70814;SDS011;58428;49.478;10.986;2022-08-19T01:55:54;24.77;;;16.33;;
70814;SDS011;58428;49.478;10.986;2022-08-19T01:58:21;22.90;;;15.50;;
70814;SDS011;58428;49.478;10.986;2022-08-19T02:00:49;20.40;;;14.68;;
70814;SDS011;58428;49.478;10.986;2022-08-19T02:03:17;22.35;;;15.48;;
70814;SDS011;58428;49.478;10.986;2022-08-19T02:05:44;21.25;;;15.45;;
70814;SDS011;58428;49.478;10.986;2022-08-19T02:08:10;22.35;;;15.25;;
70814;SDS011;58428;49.478;10.986;2022-08-19T02:10:40;21.75;;;15.50;;
70814;SDS011;58428;49.478;10.986;2022-08-19T02:13:09;22.08;;;16.10;;
70814;SDS011;58428;49.478;10.986;2022-08-19T02:15:36;22.15;;;15.48;;
70814;SDS011;58428;49.478;10.986;2022-08-19T02:18:03;20.90;;;14.50;;
70814;SDS011;58428;49.478;10.986;2022-08-19T02:20:28;22.83;;;15.27;;
70814;SDS011;58428;49.478;10.986;2022-08-19T02:22:57;22.35;;;16.27;;
70814;SDS011;58428;49.478;10.986;2022-08-19T02:25:22;23.33;;;16.00;;
70814;SDS011;58428;49.478;10.986;2022-08-19T02:27:48;23.27;;;16.30;;
70814;SDS011;58428;49.478;10.986;2022-08-19T02:30:14;24.48;;;17.15;;
70814;SDS011;58428;49.478;10.986;2022-08-19T02:32:41;25.25;;;17.20;;
70814;SDS011;58428;49.478;10.986;2022-08-19T02:35:07;23.60;;;17.38;;
70814;SDS011;58428;49.478;10.986;2022-08-19T02:37:33;22.92;;;15.35;;
70814;SDS011;58428;49.478;10.986;2022-08-19T02:40:17;26.05;;;16.90;;
70814;SDS011;58428;49.478;10.986;2022-08-19T02:42:43;22.77;;;16.10;;
70814;SDS011;58428;49.478;10.986;2022-08-19T02:45:10;22.73;;;15.68;;
70814;SDS011;58428;49.478;10.986;2022-08-19T02:47:37;26.15;;;17.45;;
70814;SDS011;58428;49.478;10.986;2022-08-19T02:50:03;22.70;;;16.02;;
70814;SDS011;58428;49.478;10.986;2022-08-19T02:52:29;22.23;;;15.65;;
70814;SDS011;58428;49.478;10.986;2022-08-19T02:54:56;23.65;;;16.55;;
70814;SDS011;58428;49.478;10.986;2022-08-19T02:57:22;24.63;;;16.75;;
70814;SDS011;58428;49.478;10.986;2022-08-19T02:59:49;23.27;;;16.15;;
70814;SDS011;58428;49.478;10.986;2022-08-19T03:02:15;22.25;;;15.82;;
70814;SDS011;58428;49.478;10.986;2022-08-19T03:04:41;24.10;;;16.70;;
70814;SDS011;58428;49.478;10.986;2022-08-19T03:07:12;24.67;;;16.85;;
70814;SDS011;58428;49.478;10.986;2022-08-19T03:09:39;25.80;;;17.65;;
70814;SDS011;58428;49.478;10.986;2022-08-19T03:12:05;25.20;;;16.98;;
70814;SDS011;58428;49.478;10.986;2022-08-19T03:14:31;23.33;;;16.30;;
70814;SDS011;58428;49.478;10.986;2022-08-19T03:16:57;24.25;;;16.65;;
70814;SDS011;58428;49.478;10.986;2022-08-19T03:19:23;26.40;;;18.25;;
70814;SDS011;58428;49.478;10.986;2022-08-19T03:21:49;24.58;;;17.40;;
70814;SDS011;58428;49.478;10.986;2022-08-19T03:24:16;23.65;;;16.45;;
70814;SDS011;58428;49.478;10.986;2022-08-19T03:26:45;24.67;;;16.85;;
70814;SDS011;58428;49.478;10.986;2022-08-19T03:29:12;24.02;;;15.95;;
70814;SDS011;58428;49.478;10.986;2022-08-19T03:31:39;22.63;;;15.48;;
70814;SDS011;58428;49.478;10.986;2022-08-19T03:34:06;26.52;;;17.40;;
70814;SDS011;58428;49.478;10.986;2022-08-19T03:36:32;25.83;;;16.75;;
70814;SDS011;58428;49.478;10.986;2022-08-19T03:38:58;27.10;;;17.73;;
70814;SDS011;58428;49.478;10.986;2022-08-19T03:41:29;27.52;;;17.13;;
70814;SDS011;58428;49.478;10.986;2022-08-19T03:43:58;25.70;;;17.83;;
70814;SDS011;58428;49.478;10.986;2022-08-19T03:46:24;25.73;;;17.33;;
70814;SDS011;58428;49.478;10.986;2022-08-19T03:48:53;25.10;;;17.52;;
70814;SDS011;58428;49.478;10.986;2022-08-19T03:51:21;26.58;;;17.77;;
70814;SDS011;58428;49.478;10.986;2022-08-19T03:53:52;26.88;;;17.88;;
70814;SDS011;58428;49.478;10.986;2022-08-19T03:56:19;27.40;;;17.70;;
70814;SDS011;58428;49.478;10.986;2022-08-19T03:58:45;26.15;;;17.85;;
70814;SDS011;58428;49.478;10.986;2022-08-19T04:01:12;27.77;;;17.13;;
70814;SDS011;58428;49.478;10.986;2022-08-19T04:03:40;24.98;;;16.35;;
70814;SDS011;58428;49.478;10.986;2022-08-19T04:06:13;26.65;;;16.85;;
70814;SDS011;58428;49.478;10.986;2022-08-19T04:08:46;27.20;;;17.40;;
70814;SDS011;58428;49.478;10.986;2022-08-19T04:11:14;24.60;;;16.50;;
70814;SDS011;58428;49.478;10.986;2022-08-19T04:13:41;24.83;;;16.95;;
70814;SDS011;58428;49.478;10.986;2022-08-19T04:16:09;25.45;;;17.27;;
70814;SDS011;58428;49.478;10.986;2022-08-19T04:18:36;25.92;;;17.17;;
70814;SDS011;58428;49.478;10.986;2022-08-19T04:21:04;26.75;;;17.20;;
70814;SDS011;58428;49.478;10.986;2022-08-19T04:23:31;25.80;;;17.48;;
70814;SDS011;58428;49.478;10.986;2022-08-19T04:25:56;27.85;;;17.38;;
70814;SDS011;58428;49.478;10.986;2022-08-19T04:28:22;25.35;;;16.52;;
70814;SDS011;58428;49.478;10.986;2022-08-19T04:30:49;29.10;;;18.08;;
70814;SDS011;58428;49.478;10.986;2022-08-19T04:33:18;27.40;;;17.35;;
70814;SDS011;58428;49.478;10.986;2022-08-19T04:35:47;26.30;;;16.77;;
70814;SDS011;58428;49.478;10.986;2022-08-19T04:38:15;25.08;;;16.50;;
70814;SDS011;58428;49.478;10.986;2022-08-19T04:40:42;26.45;;;17.52;;
70814;SDS011;58428;49.478;10.986;2022-08-19T04:43:27;24.73;;;16.85;;
70814;SDS011;58428;49.478;10.986;2022-08-19T04:45:53;26.17;;;16.42;;
70814;SDS011;58428;49.478;10.986;2022-08-19T04:48:19;27.38;;;18.35;;
70814;SDS011;58428;49.478;10.986;2022-08-19T04:50:55;28.55;;;17.90;;
70814;SDS011;58428;49.478;10.986;2022-08-19T04:53:29;27.05;;;17.83;;
70814;SDS011;58428;49.478;10.986;2022-08-19T04:55:56;27.42;;;16.98;;
70814;SDS011;58428;49.478;10.986;2022-08-19T04:58:24;28.77;;;18.33;;
70814;SDS011;58428;49.478;10.986;2022-08-19T05:00:53;29.95;;;18.15;;
70814;SDS011;58428;49.478;10.986;2022-08-19T05:03:19;29.08;;;18.65;;
70814;SDS011;58428;49.478;10.986;2022-08-19T05:05:46;29.80;;;18.77;;
70814;SDS011;58428;49.478;10.986;2022-08-19T05:08:16;27.10;;;17.55;;
70814;SDS011;58428;49.478;10.986;2022-08-19T05:10:45;26.67;;;17.45;;
70814;SDS011;58428;49.478;10.986;2022-08-19T05:13:13;25.60;;;16.17;;
70814;SDS011;58428;49.478;10.986;2022-08-19T05:15:41;26.58;;;16.65;;
70814;SDS011;58428;49.478;10.986;2022-08-19T05:18:08;26.05;;;15.45;;
70814;SDS011;58428;49.478;10.986;2022-08-19T05:20:53;25.35;;;15.70;;
70814;SDS011;58428;49.478;10.986;2022-08-19T05:23:36;24.45;;;16.50;;
70814;SDS011;58428;49.478;10.986;2022-08-19T05:26:02;25.55;;;16.55;;
70814;SDS011;58428;49.478;10.986;2022-08-19T05:28:28;31.77;;;18.77;;
70814;SDS011;58428;49.478;10.986;2022-08-19T05:30:53;26.50;;;16.75;;
70814;SDS011;58428;49.478;10.986;2022-08-19T05:33:20;24.35;;;16.67;;
70814;SDS011;58428;49.478;10.986;2022-08-19T05:35:46;26.13;;;16.08;;
70814;SDS011;58428;49.478;10.986;2022-08-19T05:38:13;27.10;;;17.30;;
70814;SDS011;58428;49.478;10.986;2022-08-19T05:40:38;29.00;;;18.65;;
70814;SDS011;58428;49.478;10.986;2022-08-19T05:43:05;28.05;;;18.13;;
70814;SDS011;58428;49.478;10.986;2022-08-19T05:45:32;29.30;;;18.20;;
70814;SDS011;58428;49.478;10.986;2022-08-19T05:48:02;26.20;;;16.52;;
70814;SDS011;58428;49.478;10.986;2022-08-19T05:50:28;28.02;;;16.95;;
70814;SDS011;58428;49.478;10.986;2022-08-19T05:52:54;28.33;;;17.13;;
70814;SDS011;58428;49.478;10.986;2022-08-19T05:55:20;26.42;;;17.00;;
70814;SDS011;58428;49.478;10.986;2022-08-19T05:57:47;26.52;;;17.02;;
70814;SDS011;58428;49.478;10.986;2022-08-19T06:00:13;26.25;;;17.40;;
70814;SDS011;58428;49.478;10.986;2022-08-19T06:02:39;28.48;;;17.92;;
70814;SDS011;58428;49.478;10.986;2022-08-19T06:05:06;26.70;;;16.52;;
70814;SDS011;58428;49.478;10.986;2022-08-19T06:07:34;26.13;;;17.13;;
70814;SDS011;58428;49.478;10.986;2022-08-19T06:10:01;24.48;;;17.17;;
70814;SDS011;58428;49.478;10.986;2022-08-19T06:12:29;23.20;;;15.80;;
70814;SDS011;58428;49.478;10.986;2022-08-19T06:14:58;25.33;;;16.80;;
70814;SDS011;58428;49.478;10.986;2022-08-19T06:17:24;27.25;;;17.75;;
70814;SDS011;58428;49.478;10.986;2022-08-19T06:19:50;26.75;;;17.65;;
70814;SDS011;58428;49.478;10.986;2022-08-19T06:22:16;25.65;;;16.48;;
70814;SDS011;58428;49.478;10.986;2022-08-19T06:24:42;26.25;;;17.05;;
70814;SDS011;58428;49.478;10.986;2022-08-19T06:27:07;25.08;;;16.80;;
70814;SDS011;58428;49.478;10.986;2022-08-19T06:29:33;23.08;;;15.35;;
70814;SDS011;58428;49.478;10.986;2022-08-19T06:32:00;24.35;;;16.77;;
70814;SDS011;58428;49.478;10.986;2022-08-19T06:34:28;24.42;;;16.30;;
70814;SDS011;58428;49.478;10.986;2022-08-19T06:36:59;25.33;;;16.65;;
70814;SDS011;58428;49.478;10.986;2022-08-19T06:39:27;21.02;;;15.32;;
70814;SDS011;58428;49.478;10.986;2022-08-19T06:41:58;22.95;;;15.30;;
70814;SDS011;58428;49.478;10.986;2022-08-19T06:44:27;23.42;;;15.27;;
70814;SDS011;58428;49.478;10.986;2022-08-19T06:46:54;24.02;;;16.27;;
70814;SDS011;58428;49.478;10.986;2022-08-19T06:49:20;21.77;;;15.02;;
70814;SDS011;58428;49.478;10.986;2022-08-19T06:51:49;20.90;;;14.93;;
70814;SDS011;58428;49.478;10.986;2022-08-19T06:54:17;21.23;;;14.77;;
70814;SDS011;58428;49.478;10.986;2022-08-19T06:56:44;21.02;;;15.30;;
70814;SDS011;58428;49.478;10.986;2022-08-19T06:59:11;19.75;;;14.55;;
70814;SDS011;58428;49.478;10.986;2022-08-19T07:01:44;21.17;;;14.85;;
70814;SDS011;58428;49.478;10.986;2022-08-19T07:04:12;21.33;;;14.57;;
70814;SDS011;58428;49.478;10.986;2022-08-19T07:06:40;19.00;;;13.65;;
70814;SDS011;58428;49.478;10.986;2022-08-19T07:09:07;18.75;;;13.48;;
70814;SDS011;58428;49.478;10.986;2022-08-19T07:11:34;20.42;;;13.85;;
70814;SDS011;58428;49.478;10.986;2022-08-19T07:14:00;17.73;;;12.98;;
70814;SDS011;58428;49.478;10.986;2022-08-19T07:16:26;17.13;;;12.30;;
70814;SDS011;58428;49.478;10.986;2022-08-19T07:18:52;17.80;;;13.27;;
70814;SDS011;58428;49.478;10.986;2022-08-19T07:21:20;18.98;;;12.32;;
70814;SDS011;58428;49.478;10.986;2022-08-19T07:23:47;15.50;;;11.05;;
70814;SDS011;58428;49.478;10.986;2022-08-19T07:28:47;17.20;;;12.07;;
70814;SDS011;58428;49.478;10.986;2022-08-19T07:31:14;16.95;;;12.13;;
70814;SDS011;58428;49.478;10.986;2022-08-19T07:33:45;15.85;;;12.05;;
70814;SDS011;58428;49.478;10.986;2022-08-19T07:36:12;15.65;;;12.15;;
70814;SDS011;58428;49.478;10.986;2022-08-19T07:38:40;16.08;;;11.48;;
70814;SDS011;58428;49.478;10.986;2022-08-19T07:41:08;18.60;;;12.93;;
70814;SDS011;58428;49.478;10.986;2022-08-19T07:43:37;16.85;;;12.68;;
70814;SDS011;58428;49.478;10.986;2022-08-19T07:46:04;19.23;;;13.65;;
70814;SDS011;58428;49.478;10.986;2022-08-19T07:48:30;21.20;;;14.93;;
70814;SDS011;58428;49.478;10.986;2022-08-19T07:50:57;22.65;;;14.93;;
70814;SDS011;58428;49.478;10.986;2022-08-19T07:53:27;21.98;;;16.00;;
70814;SDS011;58428;49.478;10.986;2022-08-19T07:55:53;23.98;;;16.80;;
70814;SDS011;58428;49.478;10.986;2022-08-19T07:58:21;26.83;;;17.75;;
70814;SDS011;58428;49.478;10.986;2022-08-19T08:00:47;26.80;;;18.05;;
70814;SDS011;58428;49.478;10.986;2022-08-19T08:03:15;24.65;;;17.15;;
70814;SDS011;58428;49.478;10.986;2022-08-19T08:05:43;23.73;;;16.13;;
70814;SDS011;58428;49.478;10.986;2022-08-19T08:08:28;26.00;;;16.98;;
70814;SDS011;58428;49.478;10.986;2022-08-19T08:11:13;26.00;;;16.92;;
70814;SDS011;58428;49.478;10.986;2022-08-19T08:13:43;25.42;;;16.95;;
70814;SDS011;58428;49.478;10.986;2022-08-19T08:16:08;32.70;;;17.08;;
70814;SDS011;58428;49.478;10.986;2022-08-19T08:18:35;24.20;;;15.55;;
70814;SDS011;58428;49.478;10.986;2022-08-19T08:21:07;25.70;;;16.83;;
70814;SDS011;58428;49.478;10.986;2022-08-19T08:23:33;25.67;;;17.00;;
70814;SDS011;58428;49.478;10.986;2022-08-19T08:25:59;25.63;;;17.30;;
70814;SDS011;58428;49.478;10.986;2022-08-19T08:28:26;26.85;;;17.50;;
70814;SDS011;58428;49.478;10.986;2022-08-19T08:30:52;23.27;;;15.82;;
70814;SDS011;58428;49.478;10.986;2022-08-19T08:33:20;27.45;;;17.58;;
70814;SDS011;58428;49.478;10.986;2022-08-19T08:35:47;25.95;;;15.88;;
70814;SDS011;58428;49.478;10.986;2022-08-19T08:38:14;21.73;;;15.75;;
70814;SDS011;58428;49.478;10.986;2022-08-19T08:48:44;24.45;;;15.75;;
70814;SDS011;58428;49.478;10.986;2022-08-19T08:51:35;24.17;;;16.30;;
70814;SDS011;58428;49.478;10.986;2022-08-19T08:54:10;23.48;;;15.90;;
70814;SDS011;58428;49.478;10.986;2022-08-19T08:56:38;21.88;;;15.38;;
70814;SDS011;58428;49.478;10.986;2022-08-19T08:59:24;22.70;;;15.88;;
70814;SDS011;58428;49.478;10.986;2022-08-19T09:01:56;21.08;;;15.30;;
70814;SDS011;58428;49.478;10.986;2022-08-19T09:04:21;20.13;;;14.40;;
70814;SDS011;58428;49.478;10.986;2022-08-19T09:09:45;21.23;;;14.55;;
70814;SDS011;58428;49.478;10.986;2022-08-19T09:12:35;18.58;;;13.15;;
70814;SDS011;58428;49.478;10.986;2022-08-19T09:15:20;20.85;;;14.25;;
70814;SDS011;58428;49.478;10.986;2022-08-19T09:17:53;21.00;;;14.98;;
70814;SDS011;58428;49.478;10.986;2022-08-19T09:20:20;23.10;;;15.82;;
70814;SDS011;58428;49.478;10.986;2022-08-19T09:22:48;23.23;;;16.15;;
70814;SDS011;58428;49.478;10.986;2022-08-19T09:25:18;23.55;;;15.18;;
70814;SDS011;58428;49.478;10.986;2022-08-19T09:27:49;22.58;;;16.67;;
70814;SDS011;58428;49.478;10.986;2022-08-19T09:30:26;21.95;;;15.73;;
70814;SDS011;58428;49.478;10.986;2022-08-19T09:32:53;28.73;;;17.17;;
70814;SDS011;58428;49.478;10.986;2022-08-19T09:35:23;26.08;;;16.25;;
70814;SDS011;58428;49.478;10.986;2022-08-19T09:37:51;25.95;;;16.88;;
70814;SDS011;58428;49.478;10.986;2022-08-19T09:40:17;23.23;;;15.10;;
70814;SDS011;58428;49.478;10.986;2022-08-19T09:42:44;21.63;;;15.15;;
70814;SDS011;58428;49.478;10.986;2022-08-19T09:45:12;22.50;;;15.57;;
70814;SDS011;58428;49.478;10.986;2022-08-19T09:47:42;23.92;;;16.67;;
70814;SDS011;58428;49.478;10.986;2022-08-19T09:50:10;22.20;;;15.68;;
70814;SDS011;58428;49.478;10.986;2022-08-19T09:52:37;23.27;;;15.60;;
70814;SDS011;58428;49.478;10.986;2022-08-19T09:55:07;25.77;;;16.08;;
70814;SDS011;58428;49.478;10.986;2022-08-19T09:57:35;22.70;;;15.30;;
70814;SDS011;58428;49.478;10.986;2022-08-19T10:00:03;23.35;;;15.20;;
70814;SDS011;58428;49.478;10.986;2022-08-19T10:02:30;22.05;;;15.25;;
70814;SDS011;58428;49.478;10.986;2022-08-19T10:04:55;21.30;;;14.20;;
70814;SDS011;58428;49.478;10.986;2022-08-19T10:07:39;20.98;;;14.45;;
70814;SDS011;58428;49.478;10.986;2022-08-19T10:10:05;21.00;;;14.25;;
70814;SDS011;58428;49.478;10.986;2022-08-19T10:12:34;21.40;;;14.73;;
70814;SDS011;58428;49.478;10.986;2022-08-19T10:15:00;19.90;;;14.02;;
70814;SDS011;58428;49.478;10.986;2022-08-19T10:17:27;22.60;;;15.02;;
70814;SDS011;58428;49.478;10.986;2022-08-19T10:19:54;21.58;;;14.75;;
70814;SDS011;58428;49.478;10.986;2022-08-19T10:22:20;19.23;;;14.23;;
70814;SDS011;58428;49.478;10.986;2022-08-19T10:24:46;20.25;;;13.50;;
70814;SDS011;58428;49.478;10.986;2022-08-19T10:27:12;20.05;;;14.10;;
70814;SDS011;58428;49.478;10.986;2022-08-19T10:29:39;18.88;;;14.25;;
70814;SDS011;58428;49.478;10.986;2022-08-19T10:32:05;22.20;;;14.55;;
70814;SDS011;58428;49.478;10.986;2022-08-19T10:34:33;20.73;;;14.20;;
70814;SDS011;58428;49.478;10.986;2022-08-19T10:37:01;18.95;;;13.27;;
70814;SDS011;58428;49.478;10.986;2022-08-19T10:39:28;15.90;;;10.98;;
70814;SDS011;58428;49.478;10.986;2022-08-19T10:41:55;23.30;;;14.88;;
70814;SDS011;58428;49.478;10.986;2022-08-19T10:44:22;21.75;;;13.95;;
70814;SDS011;58428;49.478;10.986;2022-08-19T10:46:48;18.55;;;13.45;;
70814;SDS011;58428;49.478;10.986;2022-08-19T10:49:15;18.52;;;12.98;;
70814;SDS011;58428;49.478;10.986;2022-08-19T10:51:41;18.85;;;13.30;;
70814;SDS011;58428;49.478;10.986;2022-08-19T10:54:25;16.77;;;12.00;;
70814;SDS011;58428;49.478;10.986;2022-08-19T10:57:11;20.42;;;13.88;;
70814;SDS011;58428;49.478;10.986;2022-08-19T10:59:37;19.52;;;13.18;;
70814;SDS011;58428;49.478;10.986;2022-08-19T11:02:04;18.38;;;13.52;;
70814;SDS011;58428;49.478;10.986;2022-08-19T11:04:34;18.40;;;12.60;;
70814;SDS011;58428;49.478;10.986;2022-08-19T11:07:02;18.90;;;13.15;;
70814;SDS011;58428;49.478;10.986;2022-08-19T11:09:29;18.65;;;13.23;;
70814;SDS011;58428;49.478;10.986;2022-08-19T11:11:56;18.80;;;13.27;;
70814;SDS011;58428;49.478;10.986;2022-08-19T11:14:22;19.73;;;13.68;;
70814;SDS011;58428;49.478;10.986;2022-08-19T11:16:51;17.95;;;13.48;;
70814;SDS011;58428;49.478;10.986;2022-08-19T11:19:18;17.80;;;12.63;;
70814;SDS011;58428;49.478;10.986;2022-08-19T11:21:45;17.60;;;13.48;;
70814;SDS011;58428;49.478;10.986;2022-08-19T11:24:14;17.00;;;13.13;;
70814;SDS011;58428;49.478;10.986;2022-08-19T11:26:43;18.15;;;13.00;;
70814;SDS011;58428;49.478;10.986;2022-08-19T11:29:10;16.08;;;12.18;;
70814;SDS011;58428;49.478;10.986;2022-08-19T11:31:41;17.40;;;12.73;;
70814;SDS011;58428;49.478;10.986;2022-08-19T11:34:09;17.90;;;12.95;;
70814;SDS011;58428;49.478;10.986;2022-08-19T11:36:38;17.63;;;12.68;;
70814;SDS011;58428;49.478;10.986;2022-08-19T11:39:06;19.83;;;14.07;;
70814;SDS011;58428;49.478;10.986;2022-08-19T11:41:33;17.42;;;13.23;;
70814;SDS011;58428;49.478;10.986;2022-08-19T11:43:58;18.65;;;13.70;;
70814;SDS011;58428;49.478;10.986;2022-08-19T11:46:25;17.42;;;12.20;;
70814;SDS011;58428;49.478;10.986;2022-08-19T11:48:55;16.15;;;12.52;;
70814;SDS011;58428;49.478;10.986;2022-08-19T11:51:24;18.33;;;13.90;;
70814;SDS011;58428;49.478;10.986;2022-08-19T11:53:51;15.70;;;11.80;;
70814;SDS011;58428;49.478;10.986;2022-08-19T11:56:21;18.90;;;13.32;;
70814;SDS011;58428;49.478;10.986;2022-08-19T11:58:48;17.73;;;13.52;;
70814;SDS011;58428;49.478;10.986;2022-08-19T12:01:18;18.40;;;13.20;;
70814;SDS011;58428;49.478;10.986;2022-08-19T12:03:46;18.20;;;13.30;;
70814;SDS011;58428;49.478;10.986;2022-08-19T12:06:15;18.17;;;13.70;;
70814;SDS011;58428;49.478;10.986;2022-08-19T12:08:43;15.98;;;11.88;;
70814;SDS011;58428;49.478;10.986;2022-08-19T12:11:10;17.17;;;12.65;;
70814;SDS011;58428;49.478;10.986;2022-08-19T12:13:39;17.70;;;12.95;;
70814;SDS011;58428;49.478;10.986;2022-08-19T12:16:12;17.10;;;13.00;;
70814;SDS011;58428;49.478;10.986;2022-08-19T12:18:50;19.13;;;13.63;;
70814;SDS011;58428;49.478;10.986;2022-08-19T12:21:18;17.35;;;13.02;;
70814;SDS011;58428;49.478;10.986;2022-08-19T12:23:47;20.27;;;13.82;;
70814;SDS011;58428;49.478;10.986;2022-08-19T12:26:14;19.55;;;13.93;;
70814;SDS011;58428;49.478;10.986;2022-08-19T12:28:40;27.05;;;16.90;;
70814;SDS011;58428;49.478;10.986;2022-08-19T12:31:06;22.25;;;14.63;;
70814;SDS011;58428;49.478;10.986;2022-08-19T12:33:33;21.10;;;15.27;;
70814;SDS011;58428;49.478;10.986;2022-08-19T12:36:03;27.80;;;17.02;;
70814;SDS011;58428;49.478;10.986;2022-08-19T12:38:31;31.13;;;17.15;;
70814;SDS011;58428;49.478;10.986;2022-08-19T12:40:57;21.00;;;16.05;;
70814;SDS011;58428;49.478;10.986;2022-08-19T12:43:23;21.35;;;15.43;;
70814;SDS011;58428;49.478;10.986;2022-08-19T12:45:49;21.20;;;14.90;;
70814;SDS011;58428;49.478;10.986;2022-08-19T12:48:16;22.52;;;15.65;;
70814;SDS011;58428;49.478;10.986;2022-08-19T12:50:42;23.55;;;14.45;;
70814;SDS011;58428;49.478;10.986;2022-08-19T12:53:10;21.95;;;15.52;;
70814;SDS011;58428;49.478;10.986;2022-08-19T12:55:36;21.25;;;16.08;;
70814;SDS011;58428;49.478;10.986;2022-08-19T12:58:02;53.85;;;27.02;;
70814;SDS011;58428;49.478;10.986;2022-08-19T13:00:27;26.70;;;17.67;;
70814;SDS011;58428;49.478;10.986;2022-08-19T13:02:55;22.52;;;15.07;;
70814;SDS011;58428;49.478;10.986;2022-08-19T13:05:22;22.15;;;15.85;;
70814;SDS011;58428;49.478;10.986;2022-08-19T13:07:50;21.95;;;15.48;;
70814;SDS011;58428;49.478;10.986;2022-08-19T13:10:18;20.48;;;15.10;;
70814;SDS011;58428;49.478;10.986;2022-08-19T13:12:50;23.83;;;16.58;;
70814;SDS011;58428;49.478;10.986;2022-08-19T13:15:16;26.23;;;17.30;;
70814;SDS011;58428;49.478;10.986;2022-08-19T13:17:45;23.13;;;16.08;;
70814;SDS011;58428;49.478;10.986;2022-08-19T13:20:17;21.98;;;15.27;;
70814;SDS011;58428;49.478;10.986;2022-08-19T13:22:44;20.55;;;15.02;;
70814;SDS011;58428;49.478;10.986;2022-08-19T13:25:11;27.98;;;19.60;;
70814;SDS011;58428;49.478;10.986;2022-08-19T13:27:37;26.25;;;17.17;;
70814;SDS011;58428;49.478;10.986;2022-08-19T13:30:04;25.80;;;18.40;;
70814;SDS011;58428;49.478;10.986;2022-08-19T13:32:50;34.72;;;19.73;;
70814;SDS011;58428;49.478;10.986;2022-08-19T13:35:34;29.73;;;17.50;;
70814;SDS011;58428;49.478;10.986;2022-08-19T13:37:59;26.30;;;19.05;;
70814;SDS011;58428;49.478;10.986;2022-08-19T13:40:30;27.83;;;18.90;;
70814;SDS011;58428;49.478;10.986;2022-08-19T13:42:58;33.45;;;19.63;;
70814;SDS011;58428;49.478;10.986;2022-08-19T13:45:25;27.95;;;19.48;;
70814;SDS011;58428;49.478;10.986;2022-08-19T13:47:53;28.77;;;18.77;;
70814;SDS011;58428;49.478;10.986;2022-08-19T13:50:22;27.88;;;19.67;;
70814;SDS011;58428;49.478;10.986;2022-08-19T13:52:50;27.88;;;19.77;;
70814;SDS011;58428;49.478;10.986;2022-08-19T13:55:17;23.55;;;17.83;;
70814;SDS011;58428;49.478;10.986;2022-08-19T13:57:44;28.13;;;18.35;;
70814;SDS011;58428;49.478;10.986;2022-08-19T14:00:12;28.27;;;19.20;;
70814;SDS011;58428;49.478;10.986;2022-08-19T14:02:42;26.55;;;17.85;;
70814;SDS011;58428;49.478;10.986;2022-08-19T14:05:09;27.38;;;20.25;;
70814;SDS011;58428;49.478;10.986;2022-08-19T14:07:37;28.67;;;20.17;;
70814;SDS011;58428;49.478;10.986;2022-08-19T14:10:04;24.80;;;17.30;;
70814;SDS011;58428;49.478;10.986;2022-08-19T14:12:32;26.02;;;17.75;;
70814;SDS011;58428;49.478;10.986;2022-08-19T14:14:59;24.20;;;17.35;;
70814;SDS011;58428;49.478;10.986;2022-08-19T14:17:25;24.63;;;18.15;;
70814;SDS011;58428;49.478;10.986;2022-08-19T14:20:00;23.38;;;17.48;;
70814;SDS011;58428;49.478;10.986;2022-08-19T14:22:32;27.27;;;17.50;;
70814;SDS011;58428;49.478;10.986;2022-08-19T14:25:01;23.90;;;17.45;;
70814;SDS011;58428;49.478;10.986;2022-08-19T14:27:28;23.00;;;17.13;;
70814;SDS011;58428;49.478;10.986;2022-08-19T14:29:53;23.40;;;17.05;;
70814;SDS011;58428;49.478;10.986;2022-08-19T14:32:20;33.78;;;17.70;;
70814;SDS011;58428;49.478;10.986;2022-08-19T14:34:46;43.78;;;32.83;;